createdAt,value
2023-05-13T00:00:48.815Z,87.04
2023-05-13T00:01:50.079Z,87.29
2023-05-13T00:02:49.719Z,87.05
2023-05-13T00:03:50.235Z,87.26
2023-05-13T00:04:50.728Z,87.41
2023-05-13T00:05:50.771Z,87.3
2023-05-13T00:06:51.141Z,87.08
2023-05-13T00:07:51.564Z,87.23
2023-05-13T00:08:51.786Z,87.24
2023-05-13T00:09:52.175Z,87.18
2023-05-13T00:10:52.469Z,87.42
2023-05-13T00:11:52.820Z,87.28
2023-05-13T00:12:53.663Z,86.99
2023-05-13T00:13:53.870Z,87.24
2023-05-13T00:14:54.069Z,87.17
2023-05-13T00:15:54.527Z,87.25
2023-05-13T00:16:54.804Z,87.21
2023-05-13T00:17:55.225Z,86.6
2023-05-13T00:18:56.224Z,86.64
2023-05-13T00:19:55.842Z,87.02
2023-05-13T00:20:56.282Z,87.1
2023-05-13T00:21:56.470Z,86.94
2023-05-13T00:22:57.006Z,87.05
2023-05-13T00:23:57.346Z,87.31
2023-05-13T00:24:57.627Z,87.23
2023-05-13T00:25:58.035Z,87.56
2023-05-13T00:26:58.559Z,87.54
2023-05-13T00:27:58.711Z,87.15
2023-05-13T00:28:59.115Z,87.47
2023-05-13T00:29:59.590Z,87.25
2023-05-13T00:31:00.208Z,87.04
2023-05-13T00:32:00.305Z,86.64
2023-05-13T00:33:00.589Z,86.9
2023-05-13T00:34:00.977Z,86.9
2023-05-13T00:35:01.267Z,86.99
2023-05-13T00:36:01.722Z,87.36
2023-05-13T00:37:02.097Z,87.61
2023-05-13T00:38:02.408Z,87.91
2023-05-13T00:39:02.820Z,88.03
2023-05-13T00:40:03.518Z,87.91
2023-05-13T00:41:04.278Z,88
2023-05-13T00:42:04.397Z,87.94
2023-05-13T00:43:04.315Z,88.15
2023-05-13T00:44:05.205Z,88.15
2023-05-13T00:45:06.086Z,88
2023-05-13T00:46:05.471Z,88.04
2023-05-13T00:47:10.762Z,88
2023-05-13T00:48:09.175Z,88.17
2023-05-13T00:49:09.359Z,88.16
2023-05-13T00:50:10.876Z,88.25
2023-05-13T00:51:09.349Z,88.45
2023-05-13T00:52:09.776Z,88.6
2023-05-13T00:53:10.699Z,88.49
2023-05-13T00:54:10.226Z,88.3
2023-05-13T00:55:11.638Z,88.53
2023-05-13T00:56:11.127Z,88.48
2023-05-13T00:57:11.458Z,88.21
2023-05-13T00:58:12.611Z,88.29
2023-05-13T00:59:12.171Z,88.56
2023-05-13T01:00:13.286Z,88.63
2023-05-13T01:02:27.888Z,88.39
2023-05-13T01:13:43.001Z,88.38
2023-05-13T01:15:50.027Z,87.28
2023-05-13T01:19:58.786Z,88.33
2023-05-13T01:20:56.740Z,88.54
2023-05-13T01:21:56.712Z,88.87
2023-05-13T01:22:57.237Z,89.15
2023-05-13T01:23:57.258Z,89.29
2023-05-13T01:24:57.713Z,89.23
2023-05-13T01:25:58.118Z,89.22
2023-05-13T01:26:59.297Z,89.39
2023-05-13T01:27:59.419Z,89.44
2023-05-13T01:28:59.016Z,89.42
2023-05-13T01:29:59.503Z,89.07
2023-05-13T01:31:00.268Z,89.25
2023-05-13T01:32:02.658Z,89.26
2023-05-13T01:33:01.307Z,89.28
2023-05-13T01:34:02.361Z,89.19
2023-05-13T01:35:02.985Z,89.43
2023-05-13T01:36:02.113Z,89.41
2023-05-13T01:37:02.047Z,89.26
2023-05-13T01:38:03.521Z,89.41
2023-05-13T01:39:03.328Z,89.54
2023-05-13T01:40:24.405Z,89.56
2023-05-13T01:41:06.111Z,89.62
2023-05-13T01:42:07.033Z,89.17
2023-05-13T01:43:06.815Z,89.53
2023-05-13T01:44:07.253Z,90.04
2023-05-13T01:45:08.684Z,89.62
2023-05-13T01:47:08.702Z,88.77
2023-05-13T01:48:08.974Z,88.26
2023-05-13T01:49:09.338Z,88.73
2023-05-13T01:50:10.308Z,89.15
2023-05-13T01:51:10.096Z,89.27
2023-05-13T01:52:10.680Z,89.31
2023-05-13T01:53:10.777Z,89.36
2023-05-13T01:54:11.000Z,88.95
2023-05-13T01:55:11.520Z,88.54
2023-05-13T01:56:11.830Z,88.34
2023-05-13T01:57:12.156Z,88.31
2023-05-13T01:58:12.608Z,88.25
2023-05-13T01:59:12.876Z,88.57
2023-05-13T02:00:14.425Z,88.7
2023-05-13T02:01:13.721Z,88.52
2023-05-13T02:02:14.135Z,88.65
2023-05-13T02:03:14.428Z,88.84
2023-05-13T02:04:14.663Z,88.87
2023-05-13T02:05:14.959Z,88.97
2023-05-13T02:06:15.785Z,89.17
2023-05-13T02:07:15.802Z,89.56
2023-05-13T02:08:15.996Z,89.94
2023-05-13T02:09:16.331Z,90.13
2023-05-13T02:10:16.751Z,90.15
2023-05-13T02:11:17.052Z,90.11
2023-05-13T02:12:17.453Z,90.22
2023-05-13T02:13:17.624Z,90.24
2023-05-13T02:14:18.086Z,90.36
2023-05-13T02:15:18.619Z,90.42
2023-05-13T02:16:20.790Z,90.28
2023-05-13T02:17:19.237Z,89.81
2023-05-13T02:18:19.869Z,89.43
2023-05-13T02:19:19.905Z,89.1
2023-05-13T02:20:20.786Z,88.93
2023-05-13T02:21:20.591Z,88.86
2023-05-13T02:22:21.030Z,88.63
2023-05-13T02:23:21.428Z,88.41
2023-05-13T02:24:21.644Z,88.46
2023-05-13T02:25:22.254Z,88.81
2023-05-13T02:26:22.367Z,88.65
2023-05-13T02:27:22.632Z,88.95
2023-05-13T02:28:23.004Z,89.12
2023-05-13T02:29:23.330Z,89.38
2023-05-13T02:30:24.178Z,89.16
2023-05-13T02:31:24.201Z,89.17
2023-05-13T02:32:24.772Z,89.62
2023-05-13T02:33:25.081Z,89.88
2023-05-13T02:34:25.390Z,89.85
2023-05-13T02:35:25.468Z,89.78
2023-05-13T02:36:26.027Z,89.63
2023-05-13T02:37:26.180Z,89.61
2023-05-13T02:38:26.437Z,89.46
2023-05-13T02:39:26.981Z,89.08
2023-05-13T02:40:27.296Z,89.07
2023-05-13T02:41:27.430Z,89.08
2023-05-13T02:42:28.023Z,89.04
2023-05-13T02:43:28.441Z,89.04
2023-05-13T02:44:28.689Z,89.26
2023-05-13T02:45:29.053Z,89.64
2023-05-13T02:46:29.379Z,89.63
2023-05-13T02:47:29.876Z,89.5
2023-05-13T02:48:29.940Z,89.47
2023-05-13T02:49:30.422Z,89.45
2023-05-13T02:50:30.926Z,89.64
2023-05-13T02:51:31.102Z,89.65
2023-05-13T02:52:32.599Z,89.52
2023-05-13T02:53:31.775Z,89.37
2023-05-13T02:54:32.076Z,89.08
2023-05-13T02:55:32.506Z,88.92
2023-05-13T02:56:32.825Z,88.91
2023-05-13T02:57:33.403Z,88.8
2023-05-13T02:58:35.175Z,88.43
2023-05-13T02:59:33.852Z,88.48
2023-05-13T03:00:34.279Z,88.57
2023-05-13T03:01:34.889Z,88.38
2023-05-13T03:02:35.493Z,88.47
2023-05-13T03:03:35.384Z,88.57
2023-05-13T03:04:35.653Z,88.33
2023-05-13T03:05:35.983Z,88.3
2023-05-13T03:06:37.071Z,88.26
2023-05-13T03:07:37.094Z,88.12
2023-05-13T03:08:37.091Z,88.12
2023-05-13T03:09:37.401Z,87.96
2023-05-13T03:10:38.045Z,87.9
2023-05-13T03:11:38.080Z,87.81
2023-05-13T03:12:38.707Z,87.86
2023-05-13T03:13:38.872Z,87.82
2023-05-13T03:14:39.218Z,87.56
2023-05-13T03:15:40.532Z,87.41
2023-05-13T03:16:40.030Z,87.6
2023-05-13T03:17:40.466Z,87.68
2023-05-13T03:18:40.610Z,87.72
2023-05-13T03:19:41.010Z,87.61
2023-05-13T03:20:41.475Z,87.31
2023-05-13T03:21:41.727Z,87.1
2023-05-13T03:22:42.475Z,86.83
2023-05-13T03:23:42.629Z,86.42
2023-05-13T03:24:42.692Z,86.29
2023-05-13T03:25:43.103Z,86.44
2023-05-13T03:26:43.461Z,86.91
2023-05-13T03:27:44.082Z,87.12
2023-05-13T03:28:44.404Z,86.98
2023-05-13T03:29:44.699Z,86.9
2023-05-13T03:30:44.942Z,86.54
2023-05-13T03:31:46.341Z,86.41
2023-05-13T03:32:46.181Z,85.84
2023-05-13T03:33:46.148Z,85.1
2023-05-13T03:34:46.449Z,84.72
2023-05-13T03:35:47.009Z,83.56
2023-05-13T03:36:47.061Z,83.45
2023-05-13T03:37:47.744Z,82.96
2023-05-13T03:38:47.936Z,82.55
2023-05-13T03:39:48.315Z,82.51
2023-05-13T03:40:48.671Z,82.75
2023-05-13T03:41:49.091Z,82.06
2023-05-13T03:42:49.384Z,81.7
2023-05-13T03:43:49.753Z,81.74
2023-05-13T03:44:50.241Z,81.51
2023-05-13T03:45:50.691Z,81.62
2023-05-13T03:46:50.857Z,81.9
2023-05-13T03:47:51.320Z,82.24
2023-05-13T03:48:51.596Z,82.57
2023-05-13T03:49:52.006Z,83.02
2023-05-13T03:50:52.349Z,83.49
2023-05-13T03:51:52.650Z,83.96
2023-05-13T03:52:53.761Z,83.81
2023-05-13T03:53:53.396Z,83.3
2023-05-13T03:54:53.741Z,82.51
2023-05-13T03:55:54.041Z,82.11
2023-05-13T03:56:54.632Z,81.3
2023-05-13T03:57:55.038Z,81.04
2023-05-13T03:58:55.349Z,81.14
2023-05-13T03:59:55.759Z,81.31
2023-05-13T04:00:55.908Z,81.79
2023-05-13T04:01:56.386Z,80.99
2023-05-13T04:02:56.869Z,80.6
2023-05-13T04:03:57.127Z,79.65
2023-05-13T04:04:57.777Z,79.24
2023-05-13T04:05:58.049Z,79.12
2023-05-13T04:06:59.095Z,78.56
2023-05-13T04:07:58.899Z,78.03
2023-05-13T04:08:58.992Z,77.78
2023-05-13T04:09:59.507Z,77.19
2023-05-13T04:10:59.781Z,77.63
2023-05-13T04:12:00.191Z,77.03
2023-05-13T04:13:00.861Z,76.72
2023-05-13T04:14:00.968Z,77.14
2023-05-13T04:15:01.283Z,76.55
2023-05-13T04:16:01.858Z,76.37
2023-05-13T04:17:02.070Z,76.72
2023-05-13T04:18:02.803Z,75.5
2023-05-13T04:19:02.959Z,74.85
2023-05-13T04:20:03.920Z,74.84
2023-05-13T04:21:07.625Z,76.21
2023-05-13T04:22:05.530Z,75.53
2023-05-13T04:23:05.988Z,75.01
2023-05-13T04:24:06.468Z,74.29
2023-05-13T04:25:06.882Z,73.88
2023-05-13T04:26:06.672Z,74.63
2023-05-13T04:27:06.999Z,74.58
2023-05-13T04:28:07.508Z,75.42
2023-05-13T04:29:07.931Z,75.32
2023-05-13T04:30:09.167Z,75.04
2023-05-13T04:31:08.730Z,74.93
2023-05-13T04:32:09.192Z,74.77
2023-05-13T04:33:09.579Z,74.52
2023-05-13T04:34:09.820Z,74.69
2023-05-13T04:35:10.483Z,74.15
2023-05-13T04:36:10.526Z,74.38
2023-05-13T04:37:11.050Z,74.35
2023-05-13T04:38:11.783Z,73.82
2023-05-13T04:39:11.886Z,74.18
2023-05-13T04:40:12.919Z,73.77
2023-05-13T04:41:12.446Z,73.28
2023-05-13T04:42:14.264Z,73.47
2023-05-13T04:43:13.964Z,72.73
2023-05-13T04:44:13.756Z,72.31
2023-05-13T04:45:14.399Z,72.4
2023-05-13T04:46:14.720Z,72.79
2023-05-13T04:47:15.253Z,72.09
2023-05-13T04:48:15.855Z,71.81
2023-05-13T04:49:15.868Z,70.75
2023-05-13T04:50:16.349Z,72.09
2023-05-13T04:51:16.672Z,72.67
2023-05-13T04:52:16.982Z,72.04
2023-05-13T04:53:17.606Z,71.21
2023-05-13T04:54:17.821Z,70.56
2023-05-13T04:55:18.419Z,70.8
2023-05-13T04:56:18.646Z,71.78
2023-05-13T04:57:19.068Z,71.88
2023-05-13T04:58:19.481Z,70.73
2023-05-13T04:59:19.902Z,71.23
2023-05-13T05:00:20.359Z,71.27
2023-05-13T05:01:20.772Z,70.65
2023-05-13T05:02:21.061Z,70.08
2023-05-13T05:03:21.714Z,69.58
2023-05-13T05:04:21.933Z,69.6
2023-05-13T05:05:22.297Z,69.74
2023-05-13T05:06:22.633Z,68.75
2023-05-13T05:07:23.842Z,70.16
2023-05-13T05:08:23.650Z,68.39
2023-05-13T05:09:23.976Z,65.98
2023-05-13T05:10:24.217Z,65.64
2023-05-13T05:11:24.895Z,65.76
2023-05-13T05:12:25.098Z,66.4
2023-05-13T05:13:25.635Z,67.68
2023-05-13T05:14:25.941Z,65.48
2023-05-13T05:15:26.357Z,66.57
2023-05-13T05:16:26.803Z,66.82
2023-05-13T05:17:27.183Z,65.88
2023-05-13T05:18:27.663Z,67.16
2023-05-13T05:19:28.219Z,67.87
2023-05-13T05:20:28.372Z,67.64
2023-05-13T05:21:28.969Z,63.86
2023-05-13T05:22:29.502Z,61.45
2023-05-13T05:23:29.837Z,62.82
2023-05-13T05:24:30.194Z,64.24
2023-05-13T05:25:30.820Z,63.82
2023-05-13T05:26:31.139Z,63.04
2023-05-13T05:27:31.492Z,61.91
2023-05-13T05:28:31.979Z,62.96
2023-05-13T05:29:32.288Z,61.73
2023-05-13T05:30:33.317Z,58.97
2023-05-13T05:31:33.289Z,59.17
2023-05-13T05:32:33.671Z,57.39
2023-05-13T05:33:34.216Z,58.71
2023-05-13T05:34:34.670Z,54.82
2023-05-13T05:35:35.069Z,54.22
2023-05-13T05:36:37.419Z,51.86
2023-05-13T05:37:35.817Z,53.94
2023-05-13T05:38:36.644Z,52.29
2023-05-13T05:39:36.775Z,54.04
2023-05-13T05:40:40.744Z,55.22
2023-05-13T05:41:38.032Z,56.26
2023-05-13T05:42:38.612Z,53.95
2023-05-13T05:43:39.134Z,55.98
2023-05-13T05:44:39.244Z,53.9
2023-05-13T05:45:40.613Z,54.27
2023-05-13T05:46:40.482Z,52.31
2023-05-13T05:47:40.766Z,51.77
2023-05-13T05:48:41.149Z,52.96
2023-05-13T05:49:41.735Z,50.99
2023-05-13T05:50:42.152Z,51.42
2023-05-13T05:51:42.460Z,51.12
2023-05-13T05:52:43.012Z,48.67
2023-05-13T05:53:44.625Z,49.13
2023-05-13T05:54:43.947Z,48.81
2023-05-13T05:55:44.232Z,48.6
2023-05-13T05:56:44.744Z,49.13
2023-05-13T05:57:45.060Z,48.5
2023-05-13T05:58:45.684Z,48.14
2023-05-13T05:59:46.027Z,47.45
2023-05-13T06:00:46.518Z,45.41
2023-05-13T06:01:46.927Z,45.05
2023-05-13T06:02:47.361Z,46.11
2023-05-13T06:03:47.969Z,46.66
2023-05-13T06:04:48.423Z,46.65
2023-05-13T06:05:48.813Z,44.93
2023-05-13T06:06:49.133Z,45.3
2023-05-13T06:07:50.054Z,41.96
2023-05-13T06:08:50.043Z,42.65
2023-05-13T06:09:50.584Z,40
2023-05-13T06:10:50.987Z,39.4
2023-05-13T06:11:51.459Z,37.89
2023-05-13T06:12:51.920Z,37.69
2023-05-13T06:13:53.366Z,39.1
2023-05-13T06:14:52.797Z,39.45
2023-05-13T06:15:53.241Z,39.24
2023-05-13T06:16:55.698Z,40.11
2023-05-13T06:17:54.069Z,39.72
2023-05-13T06:18:55.174Z,40
2023-05-13T06:19:55.014Z,38.67
2023-05-13T06:20:55.586Z,39.78
2023-05-13T06:21:55.878Z,38.79
2023-05-13T06:22:56.415Z,38.87
2023-05-13T06:23:56.900Z,39.01
2023-05-13T06:24:57.334Z,39.39
2023-05-13T06:25:57.955Z,39.29
2023-05-13T06:26:58.099Z,39.31
2023-05-13T06:27:59.706Z,39.91
2023-05-13T06:28:59.201Z,39.38
2023-05-13T06:29:59.851Z,39.31
2023-05-13T06:31:00.067Z,38.44
2023-05-13T06:32:00.454Z,38.73
2023-05-13T06:33:02.429Z,38.51
2023-05-13T06:34:01.390Z,38.52
2023-05-13T06:35:02.216Z,39.14
2023-05-13T06:36:02.148Z,38.83
2023-05-13T06:37:02.690Z,38.58
2023-05-13T06:38:03.362Z,38.54
2023-05-13T06:39:03.662Z,38.52
2023-05-13T06:40:04.693Z,38.75
2023-05-13T06:41:04.804Z,39.08
2023-05-13T06:42:05.633Z,38.94
2023-05-13T06:43:05.373Z,39.12
2023-05-13T06:44:06.773Z,38.05
2023-05-13T06:45:08.613Z,38.26
2023-05-13T06:46:06.854Z,37.26
2023-05-13T06:47:08.590Z,37.21
2023-05-13T06:48:07.752Z,37.89
2023-05-13T06:49:08.338Z,37.69
2023-05-13T06:50:09.266Z,36.95
2023-05-13T06:51:09.115Z,37.49
2023-05-13T06:52:10.429Z,37.18
2023-05-13T06:53:10.375Z,38.36
2023-05-13T06:54:10.721Z,37.72
2023-05-13T06:55:11.594Z,37.34
2023-05-13T06:56:11.560Z,36.18
2023-05-13T06:57:11.875Z,36.46
2023-05-13T06:58:12.508Z,36.55
2023-05-13T06:59:12.931Z,37.45
2023-05-13T07:00:14.487Z,36.59
2023-05-13T07:01:13.777Z,36.36
2023-05-13T07:02:14.363Z,35.99
2023-05-13T07:03:14.855Z,36.58
2023-05-13T07:04:15.287Z,37.35
2023-05-13T07:05:15.603Z,37.04
2023-05-13T07:06:16.072Z,37.03
2023-05-13T07:07:16.450Z,36.45
2023-05-13T07:08:17.355Z,36.78
2023-05-13T07:09:17.521Z,36.2
2023-05-13T07:10:18.156Z,36.61
2023-05-13T07:11:18.148Z,36.43
2023-05-13T07:12:18.557Z,37.13
2023-05-13T07:13:21.445Z,36.64
2023-05-13T07:14:19.500Z,35.68
2023-05-13T07:15:20.275Z,35.38
2023-05-13T07:16:20.332Z,35.6
2023-05-13T07:17:20.705Z,36.04
2023-05-13T07:18:20.986Z,36.81
2023-05-13T07:19:21.531Z,34.8
2023-05-13T07:20:22.272Z,35.48
2023-05-13T07:21:22.142Z,35.93
2023-05-13T07:22:22.629Z,35.18
2023-05-13T07:23:24.164Z,36.04
2023-05-13T07:24:23.295Z,35.87
2023-05-13T07:25:23.664Z,34.45
2023-05-13T07:26:23.929Z,33.86
2023-05-13T07:27:24.409Z,34.39
2023-05-13T07:28:24.819Z,33.79
2023-05-13T07:29:25.981Z,34.3
2023-05-13T07:30:25.516Z,34.54
2023-05-13T07:31:26.266Z,35.13
2023-05-13T07:32:26.332Z,34.38
2023-05-13T07:33:26.692Z,33.64
2023-05-13T07:34:27.115Z,33.41
2023-05-13T07:35:27.373Z,33.17
2023-05-13T07:36:27.835Z,33.34
2023-05-13T07:37:28.189Z,32.56
2023-05-13T07:38:28.574Z,32.65
2023-05-13T07:39:28.990Z,32.99
2023-05-13T07:40:29.361Z,33.03
2023-05-13T07:41:29.815Z,34.26
2023-05-13T07:42:30.056Z,34.24
2023-05-13T07:43:30.462Z,34.69
2023-05-13T07:44:30.875Z,36.18
2023-05-13T07:45:31.404Z,34.73
2023-05-13T07:46:31.609Z,33.92
2023-05-13T07:47:32.072Z,34.06
2023-05-13T07:48:32.224Z,33
2023-05-13T07:49:32.741Z,31.31
2023-05-13T07:50:33.153Z,31.03
2023-05-13T07:51:33.498Z,31.11
2023-05-13T07:52:34.002Z,30.85
2023-05-13T07:53:34.198Z,30.57
2023-05-13T07:54:34.559Z,30.72
2023-05-13T07:55:34.926Z,31.25
2023-05-13T07:56:35.363Z,31.06
2023-05-13T07:57:35.666Z,31.26
2023-05-13T07:58:36.112Z,31.82
2023-05-13T07:59:36.509Z,30.7
2023-05-13T08:00:37.018Z,30.75
2023-05-13T08:01:37.338Z,31.29
2023-05-13T08:02:39.384Z,31.29
2023-05-13T08:03:38.079Z,31.53
2023-05-13T08:04:38.733Z,31.52
2023-05-13T08:05:38.703Z,30.74
2023-05-13T08:06:40.193Z,30.74
2023-05-13T08:07:39.434Z,30.67
2023-05-13T08:08:40.593Z,30.82
2023-05-13T08:09:40.314Z,30.53
2023-05-13T08:10:40.667Z,30.65
2023-05-13T08:11:40.984Z,31.05
2023-05-13T08:12:41.454Z,30.69
2023-05-13T08:13:41.933Z,30.57
2023-05-13T08:14:42.576Z,30.03
2023-05-13T08:15:42.554Z,30.7
2023-05-13T08:16:43.008Z,30.71
2023-05-13T08:17:43.351Z,30.81
2023-05-13T08:18:43.801Z,30.53
2023-05-13T08:19:45.582Z,30.88
2023-05-13T08:20:44.518Z,30.57
2023-05-13T08:21:44.933Z,31.48
2023-05-13T08:22:45.251Z,31.48
2023-05-13T08:23:46.316Z,30.62
2023-05-13T08:24:45.975Z,30.55
2023-05-13T08:25:46.288Z,31.05
2023-05-13T08:26:46.697Z,31.11
2023-05-13T08:27:47.337Z,31.38
2023-05-13T08:29:47.964Z,31.22
2023-05-13T08:30:48.371Z,29.92
2023-05-13T08:31:48.724Z,30.28
2023-05-13T08:32:49.100Z,30.63
2023-05-13T08:33:49.515Z,31.08
2023-05-13T08:34:51.066Z,30.88
2023-05-13T08:35:50.238Z,30.26
2023-05-13T08:36:50.678Z,29.28
2023-05-13T08:37:50.984Z,29.99
2023-05-13T08:38:51.604Z,29.88
2023-05-13T08:39:52.016Z,29.5
2023-05-13T08:40:52.022Z,29.96
2023-05-13T08:41:56.018Z,29.87
2023-05-13T08:42:57.198Z,29.99
2023-05-13T08:43:57.567Z,30.26
2023-05-13T08:44:55.428Z,29.49
2023-05-13T08:45:58.116Z,30.52
2023-05-13T08:48:01.976Z,29.39
2023-05-13T08:49:01.598Z,30.2
2023-05-13T08:50:01.238Z,29.69
2023-05-13T08:51:01.730Z,30.76
2023-05-13T08:52:02.032Z,29.86
2023-05-13T08:53:02.129Z,29.91
2023-05-13T08:54:04.249Z,30.36
2023-05-13T08:55:04.723Z,30.96
2023-05-13T08:56:05.631Z,30.11
2023-05-13T08:57:04.216Z,29.69
2023-05-13T08:58:04.079Z,29.56
2023-05-13T08:59:04.640Z,30.48
2023-05-13T09:00:05.775Z,29.5
2023-05-13T09:01:06.613Z,29.77
2023-05-13T09:02:06.320Z,29.63
2023-05-13T09:03:06.323Z,30.53
2023-05-13T09:04:08.639Z,30.51
2023-05-13T09:05:08.339Z,28.97
2023-05-13T09:06:07.252Z,29.95
2023-05-13T09:07:07.962Z,29.99
2023-05-13T09:08:08.901Z,29.65
2023-05-13T09:09:09.562Z,29.1
2023-05-13T09:10:09.722Z,28.85
2023-05-13T09:11:09.326Z,29.64
2023-05-13T09:12:09.596Z,29.95
2023-05-13T09:13:12.027Z,28.85
2023-05-13T09:14:10.268Z,29.54
2023-05-13T09:16:14.693Z,29.19
2023-05-13T09:17:14.988Z,29.7
2023-05-13T09:18:18.560Z,30.21
2023-05-13T09:19:16.665Z,28.78
2023-05-13T09:20:17.932Z,30.41
2023-05-13T09:22:19.021Z,29.7
2023-05-13T09:23:19.276Z,28.85
2023-05-13T09:24:19.714Z,29.6
2023-05-13T09:25:22.231Z,30.19
2023-05-13T09:28:28.164Z,31.71
2023-05-13T09:29:28.698Z,30.13
2023-05-13T09:30:32.900Z,28.91
2023-05-13T09:31:33.837Z,28.35
2023-05-13T09:32:31.917Z,28.8
2023-05-13T09:33:31.588Z,28.99
2023-05-13T09:34:34.389Z,27.9
2023-05-13T09:35:32.945Z,27.76
2023-05-13T09:36:33.350Z,28.28
2023-05-13T09:37:33.241Z,28.19
2023-05-13T09:38:33.583Z,29.53
2023-05-13T09:39:42.052Z,29.11
2023-05-13T09:40:34.596Z,28.24
2023-05-13T09:41:34.757Z,30.27
2023-05-13T09:42:35.330Z,29.8
2023-05-13T09:43:39.022Z,27.88
2023-05-13T09:44:36.476Z,28.01
2023-05-13T09:45:36.984Z,27.73
2023-05-13T09:46:37.319Z,28.24
2023-05-13T09:47:37.957Z,28.98
2023-05-13T09:48:43.275Z,28.69
2023-05-13T09:49:41.664Z,29.63
2023-05-13T09:50:48.505Z,26.84
2023-05-13T09:51:46.347Z,26.94
2023-05-13T09:52:46.142Z,26.67
2023-05-13T09:53:47.738Z,28.03
2023-05-13T09:54:46.982Z,28.34
2023-05-13T09:55:49.586Z,27.53
2023-05-13T09:56:48.367Z,27.51
2023-05-13T09:57:48.841Z,27.69
2023-05-13T09:58:52.986Z,27.75
2023-05-13T09:59:50.404Z,27.26
2023-05-13T10:00:52.673Z,29.26
2023-05-13T10:01:51.345Z,27.66
2023-05-13T10:02:51.987Z,27.11
2023-05-13T10:03:52.544Z,27.69
2023-05-13T10:04:55.554Z,27.06
2023-05-13T10:05:53.301Z,28.1
2023-05-13T10:06:54.086Z,28.07
2023-05-13T10:07:54.846Z,28.04
2023-05-13T10:08:55.778Z,29.27
2023-05-13T10:10:00.825Z,27.76
2023-05-13T10:10:58.973Z,27.59
2023-05-13T10:11:59.636Z,27.64
2023-05-13T10:14:01.970Z,28.41
2023-05-13T10:15:02.130Z,28.28
2023-05-13T10:16:01.053Z,28.03
2023-05-13T10:17:01.431Z,27.89
2023-05-13T10:18:02.520Z,28.8
2023-05-13T10:19:02.943Z,28.31
2023-05-13T10:20:03.254Z,27.41
2023-05-13T10:21:04.681Z,28.17
2023-05-13T10:22:03.761Z,28.34
2023-05-13T10:23:04.138Z,28.02
2023-05-13T10:24:04.691Z,28.38
2023-05-13T10:25:04.833Z,28.96
2023-05-13T10:26:06.640Z,28.46
2023-05-13T10:27:06.719Z,27.13
2023-05-13T10:28:05.955Z,27.55
2023-05-13T10:29:06.231Z,29.64
2023-05-13T10:30:07.774Z,29.29
2023-05-13T10:31:06.569Z,29.54
2023-05-13T10:32:09.212Z,29.44
2023-05-13T10:33:07.566Z,28.77
2023-05-13T10:34:07.771Z,29.75
2023-05-13T10:35:13.816Z,29.09
2023-05-13T10:43:35.064Z,28.51
2023-05-13T10:44:35.417Z,27.48
2023-05-13T10:45:34.005Z,27.46
2023-05-13T10:46:35.216Z,28.05
2023-05-13T10:47:35.175Z,28.74
2023-05-13T10:48:42.777Z,28.52
2023-05-13T10:49:35.977Z,28.02
2023-05-13T10:50:38.965Z,27.8
2023-05-13T10:51:36.601Z,27.58
2023-05-13T10:52:47.369Z,27.33
2023-05-13T10:54:42.883Z,27.92
2023-05-13T10:55:45.958Z,27.9
2023-05-13T10:56:43.544Z,27.89
2023-05-13T11:00:53.924Z,27.12
2023-05-13T11:01:54.416Z,28.25
2023-05-13T11:02:55.049Z,27.69
2023-05-13T11:04:02.912Z,28.3
2023-05-13T11:04:59.734Z,27.67
2023-05-13T11:07:15.105Z,27.5
2023-05-13T11:08:02.619Z,28.09
2023-05-13T11:09:06.430Z,26.97
2023-05-13T11:12:15.447Z,26.39
2023-05-13T11:13:21.907Z,26.57
2023-05-13T11:14:22.233Z,27.01
2023-05-13T11:15:22.332Z,27.93
2023-05-13T11:16:20.553Z,26.91
2023-05-13T11:17:20.348Z,26.94
2023-05-13T11:18:29.455Z,28.46
2023-05-13T11:19:29.723Z,28.13
2023-05-13T11:20:25.030Z,27.97
2023-05-13T11:22:24.674Z,27.35
2023-05-13T11:23:24.858Z,27.39
2023-05-13T11:24:26.488Z,27.85
2023-05-13T11:25:27.520Z,27.33
2023-05-13T11:26:26.095Z,28.42
2023-05-13T11:27:26.504Z,28.13
2023-05-13T11:30:31.021Z,26.53
2023-05-13T11:35:42.731Z,26.89
2023-05-13T11:36:46.162Z,27.1
2023-05-13T11:37:44.287Z,27.51
2023-05-13T11:38:44.054Z,26.69
2023-05-13T11:39:44.671Z,26.67
2023-05-13T11:40:45.141Z,26.62
2023-05-13T11:41:50.289Z,26.56
2023-05-13T11:42:48.348Z,27.36
2023-05-13T11:43:49.054Z,27.88
2023-05-13T11:44:49.040Z,27.2
2023-05-13T11:45:49.421Z,27.61
2023-05-13T11:47:51.494Z,27.17
2023-05-13T11:48:51.528Z,26.64
2023-05-13T11:49:51.728Z,27.46
2023-05-13T11:50:52.206Z,27.19
2023-05-13T11:51:52.559Z,26.39
2023-05-13T11:54:59.668Z,27.07
2023-05-13T11:57:01.313Z,27.38
2023-05-13T11:58:02.128Z,27.6
2023-05-13T12:00:07.566Z,27.32
2023-05-13T12:01:06.868Z,28.01
2023-05-13T12:02:07.928Z,26.85
2023-05-13T12:03:12.211Z,27.27
2023-05-13T12:04:09.540Z,27.09
2023-05-13T12:05:11.895Z,26.75
2023-05-13T12:06:11.404Z,27.83
2023-05-13T12:07:14.298Z,25.77
2023-05-13T12:08:12.038Z,26.41
2023-05-13T12:09:12.827Z,26.75
2023-05-13T12:10:13.349Z,27.41
2023-05-13T12:11:13.677Z,27.29
2023-05-13T12:12:13.491Z,26.73
2023-05-13T12:13:14.379Z,26.08
2023-05-13T12:14:14.624Z,26.49
2023-05-13T12:15:17.098Z,27.01
2023-05-13T12:16:15.282Z,26.11
2023-05-13T12:17:16.072Z,25.91
2023-05-13T12:18:16.268Z,26.39
2023-05-13T12:19:16.506Z,27.38
2023-05-13T12:20:18.900Z,27.32
2023-05-13T12:21:16.980Z,26.85
2023-05-13T12:22:21.970Z,26.92
2023-05-13T12:23:19.497Z,27.73
2023-05-13T12:24:23.395Z,28.25
2023-05-13T12:26:21.682Z,28.04
2023-05-13T12:27:21.987Z,27.85
2023-05-13T12:28:24.555Z,26.77
2023-05-13T12:29:22.823Z,27.42
2023-05-13T12:30:23.342Z,26.68
2023-05-13T12:31:23.671Z,26.69
2023-05-13T12:32:26.844Z,26.4
2023-05-13T12:35:29.820Z,27.02
2023-05-13T12:36:31.470Z,27.61
2023-05-13T12:37:30.454Z,28.3
2023-05-13T12:38:30.961Z,26.92
2023-05-13T12:39:31.273Z,26.81
2023-05-13T12:40:32.578Z,27.09
2023-05-13T12:41:34.582Z,27.37
2023-05-13T12:42:32.828Z,27.68
2023-05-13T12:43:33.262Z,26.95
2023-05-13T12:44:33.379Z,26.47
2023-05-13T12:45:34.183Z,26.86
2023-05-13T12:46:34.602Z,26.98
2023-05-13T12:48:37.289Z,26.58
2023-05-13T12:50:38.294Z,26.41
2023-05-13T12:51:38.405Z,26.31
2023-05-13T12:52:39.149Z,25.86
2023-05-13T12:53:39.386Z,26.09
2023-05-13T12:54:39.640Z,26.82
2023-05-13T12:55:40.440Z,27.37
2023-05-13T12:56:40.436Z,27.63
2023-05-13T12:57:43.785Z,27.17
2023-05-13T12:58:41.455Z,26.54
2023-05-13T12:59:41.763Z,27.59
2023-05-13T13:00:42.191Z,27.35
2023-05-13T13:01:42.959Z,26.8
2023-05-13T13:02:43.072Z,27.08
2023-05-13T13:03:44.069Z,28.19
2023-05-13T13:04:43.777Z,26.69
2023-05-13T13:05:44.159Z,26.55
2023-05-13T13:06:44.683Z,28.21
2023-05-13T13:07:44.972Z,26.91
2023-05-13T13:08:45.394Z,26.36
2023-05-13T13:09:45.807Z,27.31
2023-05-13T13:10:46.890Z,26.57
2023-05-13T13:11:46.613Z,27.24
2023-05-13T13:12:47.161Z,27.13
2023-05-13T13:13:48.705Z,28.67
2023-05-13T13:14:48.823Z,28.03
2023-05-13T13:15:48.423Z,26.74
2023-05-13T13:16:48.702Z,25.97
2023-05-13T13:17:49.186Z,25.64
2023-05-13T13:18:49.424Z,26.19
2023-05-13T13:19:49.820Z,26.54
2023-05-13T13:20:50.396Z,26.58
2023-05-13T13:21:50.604Z,26.79
2023-05-13T13:22:50.978Z,25.87
2023-05-13T13:23:51.548Z,25.77
2023-05-13T13:24:51.851Z,26.08
2023-05-13T13:25:57.808Z,25.92
2023-05-13T13:26:58.303Z,25.71
2023-05-13T13:27:57.203Z,26
2023-05-13T13:28:57.716Z,26.76
2023-05-13T13:29:58.028Z,25.93
2023-05-13T13:30:58.401Z,25.95
2023-05-13T13:31:58.704Z,26
2023-05-13T13:32:59.186Z,26.41
2023-05-13T13:33:59.571Z,26.3
2023-05-13T13:34:59.938Z,26.06
2023-05-13T13:36:00.415Z,26.18
2023-05-13T13:37:00.739Z,27.25
2023-05-13T13:38:01.265Z,27.63
2023-05-13T13:39:01.506Z,27.35
2023-05-13T13:40:02.704Z,27.07
2023-05-13T13:41:02.396Z,27.7
2023-05-13T13:42:02.914Z,27.13
2023-05-13T13:43:04.159Z,27.14
2023-05-13T13:44:03.975Z,28.29
2023-05-13T13:45:04.570Z,26.95
2023-05-13T13:46:04.523Z,27.92
2023-05-13T13:47:05.105Z,27.4
2023-05-13T13:48:06.044Z,26.65
2023-05-13T13:49:16.222Z,26.72
2023-05-13T13:50:11.270Z,27.29
2023-05-13T13:51:11.081Z,28.78
2023-05-13T13:52:11.278Z,28.75
2023-05-13T13:53:11.753Z,27.02
2023-05-13T13:54:12.145Z,28.67
2023-05-13T13:55:12.441Z,28.32
2023-05-13T13:56:12.950Z,28.19
2023-05-13T13:57:14.849Z,26.93
2023-05-13T13:58:13.687Z,26.75